createdAt,value
2022-12-15T00:00:34.703Z,57.10
2022-12-15T00:03:26.242Z,57.20
2022-12-15T00:06:12.352Z,57.20
2022-12-15T00:08:59.558Z,57.20
2022-12-15T00:11:45.823Z,57.10
2022-12-15T00:14:31.621Z,57.10
2022-12-15T00:17:17.644Z,57.10
2022-12-15T00:20:05.115Z,57.10
2022-12-15T00:22:51.088Z,57.10
2022-12-15T00:25:37.189Z,57.10
2022-12-15T00:28:23.700Z,57.10
2022-12-15T00:31:09.704Z,57.10
2022-12-15T00:33:55.952Z,57.10
2022-12-15T00:36:43.361Z,57.20
2022-12-15T00:39:11.855Z,57.10
2022-12-15T00:41:40.311Z,57.10
2022-12-15T00:44:08.637Z,57.20
2022-12-15T00:46:54.471Z,57.20
2022-12-15T00:49:41.198Z,57.20
2022-12-15T00:52:28.949Z,57.20
2022-12-15T00:55:15.097Z,57.10
2022-12-15T00:58:01.164Z,57.20
2022-12-15T01:00:47.232Z,57.20
2022-12-15T01:03:36.683Z,57.20
2022-12-15T01:06:25.377Z,57.20
2022-12-15T01:09:13.270Z,57.30
2022-12-15T01:12:00.800Z,57.20
2022-12-15T01:14:47.313Z,57.10
2022-12-15T01:17:33.580Z,57.10
2022-12-15T01:20:15.612Z,57.10
2022-12-15T01:22:44.498Z,57.10
2022-12-15T01:25:15.591Z,57.10
2022-12-15T01:27:44.940Z,57.10
2022-12-15T01:30:16.507Z,57.10
2022-12-15T01:32:46.301Z,57.20
2022-12-15T01:35:15.150Z,57.10
2022-12-15T01:37:43.524Z,57.10
2022-12-15T01:40:34.921Z,57.10
2022-12-15T01:43:03.516Z,57.00
2022-12-15T01:45:58.450Z,57.10
2022-12-15T01:48:36.429Z,57.00
2022-12-15T01:51:15.677Z,57.70
2022-12-15T01:53:50.994Z,57.00
2022-12-15T01:56:25.321Z,57.00
2022-12-15T01:58:58.137Z,57.00
2022-12-15T02:01:26.788Z,57.00
2022-12-15T02:03:55.401Z,57.00
2022-12-15T02:06:25.830Z,57.00
2022-12-15T02:08:57.028Z,57.00
2022-12-15T02:11:49.136Z,57.00
2022-12-15T02:14:29.731Z,57.10
2022-12-15T02:17:17.354Z,57.10
2022-12-15T02:20:38.886Z,57.00
2022-12-15T02:23:40.920Z,57.00
2022-12-15T02:26:46.142Z,57.00
2022-12-15T02:29:40.114Z,57.10
2022-12-15T02:32:14.380Z,57.10
2022-12-15T02:34:48.488Z,57.10
2022-12-15T02:37:23.271Z,57.10
2022-12-15T02:39:51.749Z,57.20
2022-12-15T02:42:20.537Z,57.10
2022-12-15T02:44:52.997Z,57.10
2022-12-15T02:47:34.207Z,57.00
2022-12-15T02:50:32.614Z,57.20
2022-12-15T02:53:23.603Z,57.10
2022-12-15T02:56:02.090Z,57.20
2022-12-15T02:58:41.057Z,57.00
2022-12-15T03:01:15.250Z,57.10
2022-12-15T03:03:47.292Z,57.00
2022-12-15T03:06:16.607Z,57.00
2022-12-15T03:08:44.978Z,57.00
2022-12-15T03:11:13.430Z,57.00
2022-12-15T03:13:41.814Z,57.00
2022-12-15T03:16:10.353Z,57.00
2022-12-15T03:18:39.895Z,57.70
2022-12-15T03:21:09.858Z,57.00
2022-12-15T03:23:38.871Z,57.00
2022-12-15T03:26:07.616Z,57.10
2022-12-15T03:28:36.040Z,57.10
2022-12-15T03:31:04.612Z,57.10
2022-12-15T03:33:35.295Z,57.20
2022-12-15T03:36:03.869Z,57.20
2022-12-15T03:38:33.649Z,57.10
2022-12-15T03:41:02.157Z,57.20
2022-12-15T03:43:31.079Z,57.20
2022-12-15T03:45:59.683Z,57.20
2022-12-15T03:48:28.489Z,57.20
2022-12-15T03:50:56.873Z,57.20
2022-12-15T03:53:25.205Z,57.20
2022-12-15T03:55:54.921Z,57.20
2022-12-15T03:58:23.284Z,57.20
2022-12-15T04:00:52.065Z,57.20
2022-12-15T04:03:21.743Z,57.20
2022-12-15T04:05:50.445Z,57.20
2022-12-15T04:08:19.122Z,57.30
2022-12-15T04:10:47.628Z,57.30
2022-12-15T04:13:17.631Z,57.20
2022-12-15T04:15:46.229Z,57.30
2022-12-15T04:18:14.872Z,57.30
2022-12-15T04:20:43.194Z,57.20
2022-12-15T04:23:11.645Z,57.20
2022-12-15T04:25:57.492Z,57.20
2022-12-15T04:28:44.965Z,57.20
2022-12-15T04:31:33.948Z,57.20
2022-12-15T04:34:23.837Z,57.20
2022-12-15T04:37:12.192Z,57.20
2022-12-15T04:40:02.761Z,57.20
2022-12-15T04:42:50.602Z,57.20
2022-12-15T04:45:41.371Z,57.30
2022-12-15T04:48:28.303Z,57.20
2022-12-15T04:51:15.054Z,57.30
2022-12-15T04:54:02.165Z,57.30
2022-12-15T04:56:49.991Z,57.30
2022-12-15T04:59:36.191Z,57.30
2022-12-15T05:02:23.862Z,57.30
2022-12-15T05:05:10.124Z,57.30
2022-12-15T05:07:56.084Z,57.40
2022-12-15T05:10:42.184Z,57.40
2022-12-15T05:13:28.488Z,57.40
2022-12-15T05:16:14.903Z,57.40
2022-12-15T05:19:02.592Z,57.40
2022-12-15T05:21:48.449Z,57.40
2022-12-15T05:24:34.494Z,57.40
2022-12-15T05:27:20.480Z,57.40
2022-12-15T05:30:06.488Z,57.40
2022-12-15T05:32:35.128Z,57.40
2022-12-15T05:35:06.567Z,57.40
2022-12-15T05:37:35.110Z,57.50
2022-12-15T05:40:03.455Z,57.40
2022-12-15T05:42:31.853Z,57.40
2022-12-15T05:45:00.437Z,57.50
2022-12-15T05:47:29.270Z,57.50
2022-12-15T05:49:57.892Z,57.50
2022-12-15T05:52:28.001Z,57.50
2022-12-15T05:54:56.448Z,57.50
2022-12-15T05:57:24.959Z,57.50
2022-12-15T05:59:53.397Z,57.50
2022-12-15T06:02:21.955Z,57.50
2022-12-15T06:04:50.730Z,57.50
2022-12-15T06:07:19.216Z,57.50
2022-12-15T06:09:49.243Z,57.50
2022-12-15T06:12:17.946Z,57.50
2022-12-15T06:14:46.419Z,57.40
2022-12-15T06:17:18.264Z,57.50
2022-12-15T06:19:46.693Z,57.40
2022-12-15T06:22:15.135Z,57.40
2022-12-15T06:24:43.603Z,57.40
2022-12-15T06:27:13.654Z,57.30
2022-12-15T06:29:42.033Z,57.30
2022-12-15T06:32:10.475Z,57.30
2022-12-15T06:34:38.852Z,57.40
2022-12-15T06:37:07.348Z,57.40
2022-12-15T06:39:35.721Z,57.40
2022-12-15T06:42:04.497Z,57.40
2022-12-15T06:44:34.373Z,57.40
2022-12-15T06:47:03.111Z,57.40
2022-12-15T06:49:32.031Z,57.40
2022-12-15T06:52:00.514Z,57.40
2022-12-15T06:54:28.897Z,57.40
2022-12-15T06:56:57.727Z,57.50
2022-12-15T06:59:26.282Z,57.50
2022-12-15T07:01:56.241Z,57.50
2022-12-15T07:04:24.908Z,57.50
2022-12-15T07:06:53.585Z,57.50
2022-12-15T07:09:22.131Z,57.50
2022-12-15T07:11:51.357Z,57.50
2022-12-15T07:14:19.712Z,57.50
2022-12-15T07:16:48.188Z,57.50
2022-12-15T07:19:18.909Z,57.50
2022-12-15T07:21:47.275Z,57.50
2022-12-15T07:24:15.670Z,57.50
2022-12-15T07:26:46.027Z,57.50
2022-12-15T07:29:22.836Z,57.50
2022-12-15T07:31:51.892Z,57.50
2022-12-15T07:34:21.944Z,57.50
2022-12-15T07:36:52.688Z,57.50
2022-12-15T07:39:21.480Z,57.50
2022-12-15T07:41:49.993Z,57.50
2022-12-15T07:44:18.697Z,57.50
2022-12-15T07:46:49.070Z,57.50
2022-12-15T07:49:17.821Z,57.50
2022-12-15T07:51:48.115Z,57.50
2022-12-15T07:54:17.229Z,57.60
2022-12-15T07:56:50.235Z,57.60
2022-12-15T07:59:19.615Z,57.60
2022-12-15T08:01:48.205Z,57.60
2022-12-15T08:04:17.509Z,57.60
2022-12-15T08:06:47.610Z,57.60
2022-12-15T08:09:16.162Z,57.70
2022-12-15T08:11:44.713Z,57.70
2022-12-15T08:14:17.278Z,57.70
2022-12-15T08:16:46.938Z,57.70
2022-12-15T08:19:17.932Z,57.70
2022-12-15T08:21:48.914Z,57.80
2022-12-15T08:24:19.362Z,57.80
2022-12-15T08:26:50.185Z,57.80
2022-12-15T08:29:50.988Z,57.80
2022-12-15T08:32:08.829Z,57.90
2022-12-15T08:34:37.458Z,57.90
2022-12-15T08:37:07.315Z,57.90
2022-12-15T08:39:36.035Z,57.90
2022-12-15T08:42:04.834Z,58.00
2022-12-15T08:44:33.475Z,57.90
2022-12-15T08:47:01.999Z,58.00
2022-12-15T08:49:30.407Z,58.10
2022-12-15T08:51:58.960Z,58.10
2022-12-15T08:54:28.887Z,58.00
2022-12-15T08:56:57.390Z,58.10
2022-12-15T08:59:26.357Z,58.10
2022-12-15T09:01:54.836Z,58.10
2022-12-15T09:04:23.906Z,58.10
2022-12-15T09:06:52.371Z,58.20
2022-12-15T09:09:23.617Z,58.30
2022-12-15T09:11:53.762Z,58.30
2022-12-15T09:14:28.820Z,58.30
2022-12-15T09:16:57.913Z,58.30
2022-12-15T09:19:26.794Z,58.30
2022-12-15T09:21:55.678Z,58.50
2022-12-15T09:24:33.851Z,58.50
2022-12-15T09:27:05.261Z,58.50
2022-12-15T09:29:35.170Z,58.50
2022-12-15T09:32:05.531Z,59.20
2022-12-15T09:34:37.768Z,58.60
2022-12-15T09:37:06.725Z,58.50
2022-12-15T09:39:35.586Z,58.60
2022-12-15T09:42:06.189Z,58.60
2022-12-15T09:44:36.063Z,58.70
2022-12-15T09:47:18.931Z,58.80
2022-12-15T09:49:56.595Z,58.80
2022-12-15T09:52:29.192Z,58.80
2022-12-15T09:54:59.130Z,58.80
2022-12-15T09:57:38.504Z,59.00
2022-12-15T10:03:45.150Z,59.00
2022-12-15T10:06:20.886Z,59.00
2022-12-15T10:08:56.474Z,59.00
2022-12-15T10:11:50.286Z,59.10
2022-12-15T10:14:30.259Z,59.10
2022-12-15T10:17:08.545Z,59.00
2022-12-15T10:19:43.280Z,59.10
2022-12-15T10:22:19.950Z,59.10
2022-12-15T10:28:11.528Z,59.20
2022-12-15T10:30:52.750Z,59.30
2022-12-15T10:33:25.286Z,59.30
2022-12-15T10:35:55.490Z,59.30
2022-12-15T10:38:31.164Z,59.30
2022-12-15T10:41:03.102Z,59.30
2022-12-15T10:43:37.426Z,59.40
2022-12-15T10:46:15.136Z,59.40
2022-12-15T10:48:48.635Z,59.40
2022-12-15T10:51:29.049Z,59.30
2022-12-15T10:54:09.651Z,59.50
2022-12-15T10:56:50.450Z,59.50
2022-12-15T10:59:30.191Z,59.50
2022-12-15T11:02:29.818Z,59.60
2022-12-15T11:05:00.345Z,59.60
2022-12-15T11:07:35.927Z,59.60
2022-12-15T11:10:22.854Z,59.50
2022-12-15T11:13:10.609Z,59.60
2022-12-15T11:15:50.950Z,59.60
2022-12-15T11:18:38.945Z,59.70
2022-12-15T11:21:13.805Z,59.70
2022-12-15T11:23:53.239Z,59.80
2022-12-15T11:26:50.392Z,59.80
2022-12-15T11:29:29.490Z,59.90
2022-12-15T11:32:04.787Z,59.90
2022-12-15T11:34:40.504Z,59.90
2022-12-15T11:37:43.763Z,60.00
2022-12-15T11:40:37.663Z,60.10
2022-12-15T11:46:44.449Z,60.10
2022-12-15T11:49:50.863Z,60.00
2022-12-15T11:52:44.031Z,60.00
2022-12-15T11:55:27.678Z,60.00
2022-12-15T11:58:38.466Z,60.00
2022-12-15T12:01:22.094Z,60.00
2022-12-15T12:04:03.404Z,60.00
2022-12-15T12:06:39.983Z,60.00
2022-12-15T12:09:30.147Z,60.00
2022-12-15T12:12:13.337Z,60.00
2022-12-15T12:14:52.714Z,60.10
2022-12-15T12:17:33.897Z,60.10
2022-12-15T12:20:14.557Z,60.10
2022-12-15T12:22:55.169Z,60.10
2022-12-15T12:25:26.398Z,60.10
2022-12-15T12:27:59.959Z,60.10
2022-12-15T12:30:35.881Z,60.10
2022-12-15T12:33:12.437Z,60.20
2022-12-15T12:35:48.799Z,60.10
2022-12-15T12:38:25.382Z,60.20
2022-12-15T12:41:04.150Z,60.20
2022-12-15T12:43:35.517Z,60.30
2022-12-15T12:46:14.075Z,60.30
2022-12-15T12:51:38.499Z,60.30
2022-12-15T12:54:53.496Z,60.40
2022-12-15T12:57:36.906Z,60.30
2022-12-15T13:00:18.593Z,60.30
2022-12-15T13:02:58.887Z,60.40
2022-12-15T13:05:34.072Z,60.40
2022-12-15T13:08:53.287Z,60.40
2022-12-15T13:11:58.152Z,60.50
2022-12-15T13:14:46.676Z,60.60
2022-12-15T13:17:29.243Z,60.60
2022-12-15T13:20:26.984Z,60.50
2022-12-15T13:22:58.373Z,60.60
2022-12-15T13:26:03.456Z,60.50
2022-12-15T13:28:45.829Z,60.70
2022-12-15T13:31:49.159Z,60.60
2022-12-15T13:34:27.962Z,60.70
2022-12-15T13:37:02.074Z,60.60
2022-12-15T13:39:59.983Z,60.60
2022-12-15T13:42:48.214Z,60.60
2022-12-15T13:45:48.673Z,60.60
2022-12-15T13:48:31.378Z,60.70
2022-12-15T13:51:10.770Z,60.60
2022-12-15T13:53:44.775Z,60.70
2022-12-15T13:56:50.700Z,60.70
2022-12-15T13:59:41.110Z,60.70
2022-12-15T14:02:26.715Z,60.70
2022-12-15T14:05:16.952Z,60.70
2022-12-15T14:10:43.577Z,60.70
2022-12-15T14:13:18.679Z,60.70
2022-12-15T14:15:52.409Z,60.70
2022-12-15T14:18:30.161Z,60.60
2022-12-15T14:20:59.777Z,60.70
2022-12-15T14:23:31.625Z,60.60
2022-12-15T14:26:08.033Z,60.70
2022-12-15T14:28:39.331Z,60.70
2022-12-15T14:31:13.908Z,60.70
2022-12-15T14:33:50.791Z,60.70
2022-12-15T14:36:22.170Z,60.70
2022-12-15T14:38:55.391Z,60.70
2022-12-15T14:41:27.105Z,60.70
2022-12-15T14:46:51.284Z,60.70
2022-12-15T14:49:23.569Z,60.70
2022-12-15T14:52:00.087Z,60.60
2022-12-15T14:54:36.932Z,60.60
2022-12-15T14:57:16.458Z,60.50
2022-12-15T14:59:48.569Z,60.60
2022-12-15T15:02:23.057Z,60.50
2022-12-15T15:03:03.532Z,59.00
2022-12-15T15:03:05.150Z,60.30
2022-12-15T15:03:13.421Z,60.10
2022-12-15T15:03:14.460Z,60.70
2022-12-15T15:05:03.138Z,60.50
2022-12-15T15:07:33.823Z,60.60
2022-12-15T15:10:03.858Z,60.60
2022-12-15T15:12:45.901Z,60.60
2022-12-15T15:15:18.813Z,60.60
2022-12-15T15:17:52.303Z,60.60
2022-12-15T15:20:26.819Z,60.50
2022-12-15T15:23:17.401Z,60.40
2022-12-15T15:25:51.897Z,60.50
2022-12-15T15:28:27.150Z,60.50
2022-12-15T15:30:57.994Z,60.50
2022-12-15T15:33:27.302Z,60.30
2022-12-15T15:35:59.536Z,60.40
2022-12-15T15:38:32.879Z,60.40
2022-12-15T15:41:04.293Z,60.40
2022-12-15T15:43:32.920Z,60.50
2022-12-15T15:46:06.975Z,60.40
2022-12-15T15:48:39.117Z,60.50
2022-12-15T15:51:09.202Z,60.40
2022-12-15T15:53:39.382Z,60.40
2022-12-15T15:56:12.064Z,60.50
2022-12-15T15:58:40.723Z,61.30
2022-12-15T16:01:13.091Z,60.40
2022-12-15T16:03:42.889Z,60.40
2022-12-15T16:06:19.015Z,60.40
2022-12-15T16:08:52.889Z,60.50
2022-12-15T16:11:22.848Z,60.40
2022-12-15T16:13:52.044Z,60.30
2022-12-15T16:16:23.319Z,60.40
2022-12-15T16:18:51.896Z,60.30
2022-12-15T16:21:27.516Z,60.30
2022-12-15T16:23:56.727Z,60.40
2022-12-15T16:26:31.063Z,60.20
2022-12-15T16:29:00.625Z,60.20
2022-12-15T16:31:41.417Z,60.20
2022-12-15T16:34:10.442Z,60.20
2022-12-15T16:36:41.221Z,60.20
2022-12-15T16:39:26.369Z,60.20
2022-12-15T16:41:56.676Z,60.40
2022-12-15T16:44:25.659Z,60.30
2022-12-15T16:46:54.395Z,60.20
2022-12-15T16:49:23.138Z,60.20
2022-12-15T16:51:55.164Z,60.20
2022-12-15T16:54:27.167Z,60.20
2022-12-15T16:56:58.093Z,60.20
2022-12-15T16:59:36.239Z,60.20
2022-12-15T17:02:26.890Z,60.30
2022-12-15T17:04:55.943Z,60.30
2022-12-15T17:07:27.918Z,60.30
2022-12-15T17:09:56.794Z,60.10
2022-12-15T17:12:25.236Z,60.20
2022-12-15T17:14:53.938Z,60.20
2022-12-15T17:17:22.713Z,60.40
2022-12-15T17:20:27.559Z,60.40
2022-12-15T17:22:42.072Z,60.40
2022-12-15T17:25:27.142Z,60.40
2022-12-15T17:28:11.858Z,60.50
2022-12-15T17:30:42.995Z,60.50
2022-12-15T17:33:20.016Z,60.50
2022-12-15T17:35:51.194Z,60.50
2022-12-15T17:38:23.641Z,60.50
2022-12-15T17:40:56.604Z,60.50
2022-12-15T17:43:35.192Z,60.50
2022-12-15T17:46:04.282Z,60.50
2022-12-15T17:48:32.772Z,60.40
2022-12-15T17:51:01.274Z,60.40
2022-12-15T17:53:32.126Z,60.40
2022-12-15T17:56:00.899Z,60.40
2022-12-15T17:58:29.412Z,60.50
2022-12-15T18:00:58.084Z,60.40
2022-12-15T18:03:27.336Z,60.50
2022-12-15T18:05:55.908Z,60.40
2022-12-15T18:08:26.634Z,60.40
2022-12-15T18:10:58.912Z,60.40
2022-12-15T18:13:34.863Z,60.40
2022-12-15T18:16:04.044Z,60.50
2022-12-15T18:18:32.487Z,60.50
2022-12-15T18:21:06.496Z,60.60
2022-12-15T18:23:35.348Z,60.60
2022-12-15T18:26:05.711Z,60.50
2022-12-15T18:28:36.427Z,60.60
2022-12-15T18:31:15.183Z,60.50
2022-12-15T18:33:44.547Z,60.50
2022-12-15T18:36:13.032Z,60.40
2022-12-15T18:38:41.512Z,60.40
2022-12-15T18:41:17.227Z,60.40
2022-12-15T18:43:47.532Z,60.40
2022-12-15T18:46:17.422Z,60.30
2022-12-15T18:48:46.308Z,60.40
2022-12-15T18:51:19.582Z,60.30
2022-12-15T18:53:49.176Z,60.30
2022-12-15T18:56:21.576Z,60.30
2022-12-15T18:58:50.269Z,60.50
2022-12-15T19:01:18.889Z,60.40
2022-12-15T19:03:47.563Z,60.40
2022-12-15T19:06:26.154Z,60.40
2022-12-15T19:08:54.761Z,60.50
2022-12-15T19:11:31.237Z,60.50
2022-12-15T19:14:01.255Z,60.50
2022-12-15T19:16:51.786Z,60.50
2022-12-15T19:19:37.906Z,60.50
2022-12-15T19:22:29.961Z,60.40
2022-12-15T19:24:59.645Z,60.50
2022-12-15T19:27:29.716Z,60.30
2022-12-15T19:29:58.675Z,60.50
2022-12-15T19:32:27.816Z,60.30
2022-12-15T19:34:56.248Z,60.40
2022-12-15T19:37:28.696Z,60.30
2022-12-15T19:39:59.132Z,60.30
2022-12-15T19:42:32.553Z,60.30
2022-12-15T19:45:01.410Z,60.20
2022-12-15T19:47:30.245Z,60.30
2022-12-15T19:49:58.662Z,60.20
2022-12-15T19:52:28.359Z,60.20
2022-12-15T19:54:57.111Z,60.20
2022-12-15T19:57:26.311Z,60.20
2022-12-15T19:59:56.059Z,60.20
2022-12-15T20:02:25.021Z,60.20
2022-12-15T20:04:53.579Z,60.20
2022-12-15T20:07:30.956Z,60.20
2022-12-15T20:09:59.411Z,60.30
2022-12-15T20:12:28.095Z,60.20
2022-12-15T20:14:57.973Z,60.20
2022-12-15T20:17:26.627Z,60.30
2022-12-15T20:19:55.053Z,60.20
2022-12-15T20:22:23.703Z,60.10
2022-12-15T20:24:52.195Z,60.10
2022-12-15T20:27:21.047Z,60.20
2022-12-15T20:29:49.873Z,60.20
2022-12-15T20:32:22.065Z,60.10
2022-12-15T20:34:50.523Z,60.10
2022-12-15T20:37:22.859Z,60.00
2022-12-15T20:39:57.010Z,60.00
2022-12-15T20:42:26.425Z,60.00
2022-12-15T20:44:54.975Z,60.00
2022-12-15T20:47:27.682Z,60.00
2022-12-15T20:49:56.685Z,60.90
2022-12-15T20:52:27.608Z,60.00
2022-12-15T20:54:56.475Z,60.00
2022-12-15T20:57:24.848Z,60.00
2022-12-15T20:59:53.870Z,60.00
2022-12-15T21:02:25.870Z,60.00
2022-12-15T21:04:55.153Z,60.00
2022-12-15T21:07:23.916Z,59.90
2022-12-15T21:09:52.391Z,59.90
2022-12-15T21:12:24.639Z,59.90
2022-12-15T21:14:53.581Z,59.90
2022-12-15T21:17:26.764Z,59.90
2022-12-15T21:19:55.189Z,59.90
2022-12-15T21:22:26.591Z,59.90
2022-12-15T21:24:58.363Z,59.90
2022-12-15T21:27:26.753Z,59.90
2022-12-15T21:29:56.254Z,59.90
2022-12-15T21:32:26.241Z,59.90
2022-12-15T21:34:54.857Z,59.80
2022-12-15T21:37:28.606Z,59.80
2022-12-15T21:39:57.865Z,59.80
2022-12-15T21:42:27.314Z,59.80
2022-12-15T21:44:55.886Z,59.80
2022-12-15T21:47:50.117Z,59.80
2022-12-15T21:50:20.260Z,59.80
2022-12-15T21:52:48.811Z,59.80
2022-12-15T21:55:18.764Z,59.80
2022-12-15T21:57:47.376Z,59.80
2022-12-15T22:00:19.399Z,59.80
2022-12-15T22:02:51.848Z,59.80
2022-12-15T22:05:24.229Z,59.80
2022-12-15T22:07:53.546Z,59.70
2022-12-15T22:10:25.049Z,59.70
2022-12-15T22:12:59.572Z,59.80
2022-12-15T22:15:30.731Z,59.70
2022-12-15T22:18:00.985Z,59.70
2022-12-15T22:20:29.464Z,59.70
2022-12-15T22:22:57.941Z,60.40
2022-12-15T22:25:27.524Z,60.40
2022-12-15T22:27:56.493Z,59.70
2022-12-15T22:30:27.531Z,59.70
2022-12-15T22:32:56.374Z,59.70
2022-12-15T22:35:27.664Z,59.70
2022-12-15T22:37:56.508Z,59.70
2022-12-15T22:40:26.931Z,59.70
2022-12-15T22:42:58.393Z,59.70
2022-12-15T22:45:26.985Z,59.70
2022-12-15T22:47:55.437Z,59.70
2022-12-15T22:50:27.517Z,59.70
2022-12-15T22:52:56.593Z,59.50
2022-12-15T22:55:25.401Z,59.90
2022-12-15T22:57:59.832Z,59.30
2022-12-15T23:00:28.503Z,59.30
2022-12-15T23:02:59.552Z,59.30
2022-12-15T23:05:29.589Z,59.40
2022-12-15T23:07:58.267Z,59.40
2022-12-15T23:10:44.349Z,59.40
2022-12-15T23:13:13.358Z,59.40
2022-12-15T23:15:59.754Z,59.50
2022-12-15T23:18:28.287Z,59.50
2022-12-15T23:20:58.334Z,59.50
2022-12-15T23:23:28.101Z,59.50
2022-12-15T23:25:56.636Z,59.50
2022-12-15T23:28:26.014Z,59.50
2022-12-15T23:30:55.867Z,59.50
2022-12-15T23:33:25.777Z,59.50
2022-12-15T23:35:55.349Z,59.50
2022-12-15T23:38:27.745Z,59.50
2022-12-15T23:40:59.208Z,59.60
2022-12-15T23:43:30.042Z,59.50
2022-12-15T23:46:01.474Z,59.50
2022-12-15T23:48:35.843Z,59.50
2022-12-15T23:51:06.548Z,59.50
2022-12-15T23:53:36.932Z,59.50
2022-12-15T23:56:12.030Z,59.50
2022-12-15T23:58:42.647Z,59.50
